createdAt,value
2018-02-14T00:00:43.779Z,3.07
2018-02-14T00:03:11.339Z,3.70
2018-02-14T00:05:38.908Z,3.50
2018-02-14T00:08:06.465Z,4.07
2018-02-14T00:10:34.037Z,3.90
2018-02-14T00:13:01.687Z,3.93
2018-02-14T00:15:29.236Z,3.43
2018-02-14T00:17:56.820Z,3.30
2018-02-14T00:20:24.481Z,3.23
2018-02-14T00:22:52.040Z,3.10
2018-02-14T00:25:19.611Z,3.70
2018-02-14T00:27:47.165Z,3.40
2018-02-14T00:30:14.713Z,3.63
2018-02-14T00:32:42.287Z,3.53
2018-02-14T00:35:10.016Z,3.55
2018-02-14T00:37:37.695Z,3.13
2018-02-14T00:40:05.260Z,3.37
2018-02-14T00:42:32.827Z,3.97
2018-02-14T00:45:00.487Z,3.43
2018-02-14T00:47:28.140Z,4.33
2018-02-14T00:49:55.694Z,3.43
2018-02-14T00:52:23.269Z,3.40
2018-02-14T00:54:50.932Z,3.93
2018-02-14T00:57:18.474Z,3.37
2018-02-14T00:59:46.126Z,3.60
2018-02-14T01:02:13.700Z,3.70
2018-02-14T01:04:41.264Z,4.00
2018-02-14T01:07:08.814Z,3.70
2018-02-14T01:09:36.486Z,2.93
2018-02-14T01:12:04.059Z,4.13
2018-02-14T01:14:31.615Z,4.07
2018-02-14T01:16:59.178Z,3.73
2018-02-14T01:19:26.728Z,3.10
2018-02-14T01:21:54.299Z,3.50
2018-02-14T01:24:21.858Z,3.27
2018-02-14T01:26:49.412Z,3.50
2018-02-14T01:29:16.951Z,3.67
2018-02-14T01:31:44.821Z,3.00
2018-02-14T01:34:13.123Z,3.30
2018-02-14T01:36:40.789Z,3.63
2018-02-14T01:39:08.354Z,2.87
2018-02-14T01:41:35.907Z,3.67
2018-02-14T01:44:03.565Z,3.70
2018-02-14T01:46:31.134Z,3.53
2018-02-14T01:48:58.791Z,3.10
2018-02-14T01:51:26.441Z,3.23
2018-02-14T01:53:54.013Z,3.57
2018-02-14T01:56:21.582Z,3.73
2018-02-14T01:58:49.129Z,3.73
2018-02-14T02:01:16.683Z,4.30
2018-02-14T02:03:44.255Z,3.77
2018-02-14T02:06:11.820Z,3.70
2018-02-14T02:08:39.403Z,3.70
2018-02-14T02:11:07.716Z,3.43
2018-02-14T02:13:35.311Z,3.50
2018-02-14T02:16:02.888Z,3.90
2018-02-14T02:18:31.212Z,4.00
2018-02-14T02:20:58.781Z,4.47
2018-02-14T02:23:26.445Z,3.50
2018-02-14T02:25:54.012Z,3.37
2018-02-14T02:28:21.566Z,3.23
2018-02-14T02:30:49.140Z,3.33
2018-02-14T02:33:16.708Z,3.43
2018-02-14T02:35:44.384Z,3.50
2018-02-14T02:38:11.969Z,3.67
2018-02-14T02:40:42.093Z,2.93
2018-02-14T02:43:10.414Z,3.20
2018-02-14T02:45:37.992Z,3.63
2018-02-14T02:48:05.557Z,3.93
2018-02-14T02:50:33.140Z,3.90
2018-02-14T02:53:01.693Z,4.20
2018-02-14T02:55:29.252Z,4.73
2018-02-14T02:57:56.805Z,4.47
2018-02-14T03:00:24.378Z,4.80
2018-02-14T03:02:51.961Z,4.73
2018-02-14T03:05:19.527Z,5.00
2018-02-14T03:07:47.869Z,4.63
2018-02-14T03:10:15.512Z,4.70
2018-02-14T03:12:43.086Z,5.40
2018-02-14T03:15:10.657Z,5.17
2018-02-14T03:17:38.216Z,4.50
2018-02-14T03:20:05.875Z,3.90
2018-02-14T03:22:33.451Z,3.77
2018-02-14T03:25:01.002Z,4.10
2018-02-14T03:27:28.563Z,3.60
2018-02-14T03:29:56.223Z,3.63
2018-02-14T03:32:23.792Z,3.60
2018-02-14T03:34:51.340Z,3.80
2018-02-14T03:37:18.913Z,3.53
2018-02-14T03:39:46.570Z,4.13
2018-02-14T03:42:14.145Z,4.00
2018-02-14T03:44:41.790Z,4.17
2018-02-14T03:47:09.349Z,3.83
2018-02-14T03:49:36.901Z,4.13
2018-02-14T03:52:04.474Z,3.83
2018-02-14T03:54:32.137Z,3.83
2018-02-14T03:56:59.683Z,3.70
2018-02-14T03:59:27.257Z,3.10
2018-02-14T04:01:54.923Z,4.20
2018-02-14T04:04:22.468Z,3.87
2018-02-14T04:06:50.139Z,3.60
2018-02-14T04:09:17.694Z,3.63
2018-02-14T04:11:45.259Z,3.57
2018-02-14T04:14:12.925Z,3.90
2018-02-14T04:16:40.592Z,3.83
2018-02-14T04:19:08.152Z,3.60
2018-02-14T04:21:37.235Z,4.50
2018-02-14T04:24:04.784Z,4.07
2018-02-14T04:26:32.349Z,4.40
2018-02-14T04:29:00.015Z,3.70
2018-02-14T04:31:27.577Z,4.20
2018-02-14T04:33:55.154Z,3.80
2018-02-14T04:36:22.803Z,3.83
2018-02-14T04:38:50.337Z,4.40
2018-02-14T04:41:17.927Z,4.37
2018-02-14T04:43:45.514Z,4.13
2018-02-14T04:46:13.941Z,4.03
2018-02-14T04:48:41.487Z,3.57
2018-02-14T04:51:09.159Z,4.13
2018-02-14T04:53:36.736Z,4.07
2018-02-14T04:56:04.382Z,4.03
2018-02-14T04:58:32.047Z,3.80
2018-02-14T05:00:59.596Z,3.90
2018-02-14T05:03:27.189Z,3.87
2018-02-14T05:05:54.774Z,4.50
2018-02-14T05:08:22.351Z,3.90
2018-02-14T05:10:50.793Z,5.20
2018-02-14T05:13:18.366Z,4.37
2018-02-14T05:15:45.995Z,4.10
2018-02-14T05:18:13.568Z,4.53
2018-02-14T05:20:41.129Z,4.47
2018-02-14T05:23:08.683Z,3.97
2018-02-14T05:25:36.333Z,4.67
2018-02-14T05:28:03.893Z,4.20
2018-02-14T05:30:31.470Z,3.57
2018-02-14T05:32:59.011Z,4.17
2018-02-14T05:35:26.578Z,4.20
2018-02-14T05:37:54.166Z,4.07
2018-02-14T05:40:21.715Z,3.97
2018-02-14T05:42:49.282Z,3.80
2018-02-14T05:45:16.829Z,4.20
2018-02-14T05:47:44.381Z,3.40
2018-02-14T05:50:12.051Z,3.97
2018-02-14T05:52:39.602Z,4.93
2018-02-14T05:55:07.189Z,4.77
2018-02-14T05:57:34.754Z,4.20
2018-02-14T06:00:02.326Z,4.73
2018-02-14T06:02:29.879Z,4.27
2018-02-14T06:04:57.452Z,3.93
2018-02-14T06:07:25.787Z,4.27
2018-02-14T06:09:53.435Z,4.00
2018-02-14T06:12:21.017Z,4.07
2018-02-14T06:14:48.680Z,4.27
2018-02-14T06:17:16.321Z,4.43
2018-02-14T06:19:43.987Z,4.43
2018-02-14T06:22:11.545Z,4.47
2018-02-14T06:24:39.209Z,4.53
2018-02-14T06:27:06.788Z,4.60
2018-02-14T06:29:34.353Z,4.27
2018-02-14T06:32:01.914Z,4.47
2018-02-14T06:34:29.476Z,4.03
2018-02-14T06:36:57.051Z,4.20
2018-02-14T06:39:24.613Z,4.47
2018-02-14T06:41:52.197Z,4.27
2018-02-14T06:44:20.608Z,3.77
2018-02-14T06:46:48.178Z,4.60
2018-02-14T06:49:15.759Z,4.20
2018-02-14T06:51:43.333Z,4.63
2018-02-14T06:54:10.889Z,4.27
2018-02-14T06:56:38.465Z,4.10
2018-02-14T06:59:06.794Z,7.17
2018-02-14T07:01:34.450Z,10.13
2018-02-14T07:04:02.016Z,5.17
2018-02-14T07:06:29.590Z,4.33
2018-02-14T07:08:57.335Z,4.53
2018-02-14T07:11:24.909Z,4.47
2018-02-14T07:13:52.455Z,4.33
2018-02-14T07:16:20.046Z,4.70
2018-02-14T07:18:47.627Z,4.63
2018-02-14T07:21:15.184Z,4.10
2018-02-14T07:23:42.749Z,5.43
2018-02-14T07:26:11.098Z,4.40
2018-02-14T07:28:38.796Z,5.00
2018-02-14T07:31:07.155Z,3.93
2018-02-14T07:58:03.681Z,5.03
2018-02-14T08:03:52.532Z,4.87
2018-02-14T08:06:20.304Z,4.73
2018-02-14T08:08:48.061Z,5.53
2018-02-14T08:11:15.821Z,5.03
2018-02-14T08:13:43.385Z,4.90
2018-02-14T08:16:11.120Z,5.47
2018-02-14T08:18:38.675Z,4.97
2018-02-14T08:21:06.227Z,4.93
2018-02-14T08:23:33.991Z,4.90
2018-02-14T08:26:02.402Z,5.27
2018-02-14T08:28:29.975Z,5.17
2018-02-14T08:30:57.617Z,5.17
2018-02-14T08:33:25.191Z,4.47
2018-02-14T08:35:52.834Z,5.30
2018-02-14T08:38:20.526Z,5.60
2018-02-14T08:40:48.075Z,4.80
2018-02-14T08:43:15.609Z,5.30
2018-02-14T08:45:43.287Z,4.77
2018-02-14T08:48:11.083Z,4.53
2018-02-14T08:50:38.621Z,6.03
2018-02-14T08:53:06.356Z,5.30
2018-02-14T08:55:34.127Z,5.63
2018-02-14T08:58:01.668Z,4.20
2018-02-14T09:00:29.202Z,5.80
2018-02-14T09:02:56.789Z,6.37
2018-02-14T09:05:24.650Z,5.13
2018-02-14T09:07:52.190Z,4.07
2018-02-14T09:10:19.762Z,5.40
2018-02-14T09:12:47.555Z,5.90
2018-02-14T09:15:15.281Z,5.13
2018-02-14T09:17:42.839Z,6.13
2018-02-14T09:20:10.558Z,6.00
2018-02-14T09:22:38.093Z,5.83
2018-02-14T09:25:05.683Z,3.87
2018-02-14T09:27:33.538Z,5.47
2018-02-14T09:30:01.079Z,2.87
2018-02-14T09:32:29.077Z,4.67
2018-02-14T09:34:56.778Z,6.40
2018-02-14T09:37:24.556Z,6.03
2018-02-14T09:39:52.110Z,4.33
2018-02-14T09:42:19.635Z,6.83
2018-02-14T09:44:48.203Z,5.67
2018-02-14T09:47:15.913Z,6.20
2018-02-14T09:49:43.458Z,3.67
2018-02-14T09:52:11.008Z,6.83
2018-02-14T09:54:39.346Z,5.93
2018-02-14T09:57:07.000Z,6.63
2018-02-14T09:59:34.573Z,5.93
2018-02-14T10:02:03.132Z,6.67
2018-02-14T10:04:30.682Z,5.57
2018-02-14T10:06:58.401Z,4.40
2018-02-14T10:09:26.773Z,6.10
2018-02-14T10:11:55.140Z,6.03
2018-02-14T10:14:22.902Z,5.30
2018-02-14T10:16:50.939Z,6.50
2018-02-14T10:19:18.656Z,3.80
2018-02-14T10:21:46.479Z,7.00
2018-02-14T10:24:14.044Z,4.80
2018-02-14T10:26:41.649Z,5.57
2018-02-14T10:29:09.782Z,6.17
2018-02-14T10:31:37.323Z,3.70
2018-02-14T10:34:04.864Z,6.63
2018-02-14T10:36:32.411Z,3.33
2018-02-14T10:39:00.174Z,7.07
2018-02-14T10:41:27.713Z,4.73
2018-02-14T10:43:56.047Z,6.50
2018-02-14T10:46:23.716Z,4.47
2018-02-14T10:48:51.279Z,7.47
2018-02-14T10:51:19.022Z,6.50
2018-02-14T10:53:46.789Z,7.10
2018-02-14T10:56:14.556Z,5.77
2018-02-14T10:58:42.095Z,7.53
2018-02-14T11:01:15.376Z,6.03
2018-02-14T11:03:42.917Z,4.37
2018-02-14T11:06:13.390Z,6.23
2018-02-14T11:08:40.954Z,6.47
2018-02-14T11:11:08.499Z,7.00
2018-02-14T11:13:36.029Z,6.93
2018-02-14T11:16:03.703Z,6.40
2018-02-14T11:18:31.450Z,6.90
2018-02-14T11:20:58.997Z,5.30
2018-02-14T11:23:27.321Z,6.87
2018-02-14T11:25:54.872Z,4.70
2018-02-14T11:28:22.558Z,3.40
2018-02-14T11:30:50.122Z,5.03
2018-02-14T11:33:17.772Z,2.63
2018-02-14T11:35:45.956Z,5.67
2018-02-14T11:38:13.574Z,5.93
2018-02-14T11:40:41.119Z,4.27
2018-02-14T11:43:09.463Z,6.00
2018-02-14T11:45:36.992Z,3.80
2018-02-14T11:48:04.606Z,6.83
2018-02-14T11:50:32.158Z,6.50
2018-02-14T11:53:00.499Z,4.77
2018-02-14T11:55:28.039Z,6.80
2018-02-14T11:57:55.579Z,6.73
2018-02-14T12:00:23.141Z,4.67
2018-02-14T12:02:50.685Z,5.30
2018-02-14T12:05:19.001Z,4.60
2018-02-14T12:07:46.766Z,5.47
2018-02-14T12:10:14.537Z,6.60
2018-02-14T12:12:42.078Z,7.50
2018-02-14T12:15:10.478Z,6.32
2018-02-14T12:17:38.134Z,6.80
2018-02-14T12:20:05.910Z,5.97
2018-02-14T12:22:33.679Z,6.80
2018-02-14T12:25:01.240Z,6.60
2018-02-14T12:27:29.553Z,7.00
2018-02-14T12:29:57.262Z,5.37
2018-02-14T12:32:24.815Z,6.47
2018-02-14T12:34:52.484Z,6.90
2018-02-14T12:37:20.047Z,8.60
2018-02-14T12:39:47.688Z,13.37
2018-02-14T12:42:15.438Z,7.23
2018-02-14T12:44:42.993Z,5.67
2018-02-14T12:47:10.674Z,6.27
2018-02-14T12:49:38.376Z,6.00
2018-02-14T12:52:05.928Z,5.87
2018-02-14T12:54:34.261Z,7.03
2018-02-14T12:57:02.059Z,6.73
2018-02-14T12:59:29.775Z,6.50
2018-02-14T13:01:57.544Z,6.70
2018-02-14T13:04:25.258Z,4.37
2018-02-14T13:06:52.815Z,6.43
2018-02-14T13:09:20.362Z,4.67
2018-02-14T13:11:47.914Z,4.93
2018-02-14T13:14:15.471Z,5.30
2018-02-14T13:16:43.237Z,6.33
2018-02-14T13:19:11.002Z,6.40
2018-02-14T13:21:38.541Z,6.23
2018-02-14T13:24:06.210Z,5.43
2018-02-14T13:26:33.752Z,4.17
2018-02-14T13:29:01.334Z,5.70
2018-02-14T13:31:28.894Z,5.27
2018-02-14T13:33:56.433Z,5.27
2018-02-14T13:36:23.987Z,4.50
2018-02-14T13:38:51.515Z,5.20
2018-02-14T13:41:19.056Z,5.80
2018-02-14T13:43:46.606Z,5.87
2018-02-14T13:46:14.162Z,3.70
2018-02-14T13:48:42.014Z,5.87
2018-02-14T13:51:09.570Z,5.90
2018-02-14T13:53:37.107Z,5.40
2018-02-14T13:56:04.650Z,6.10
2018-02-14T13:58:32.456Z,5.73
2018-02-14T14:01:00.224Z,5.87
2018-02-14T14:03:27.889Z,5.00
2018-02-14T14:05:55.452Z,4.73
2018-02-14T14:08:23.283Z,6.10
2018-02-14T14:10:50.931Z,5.47
2018-02-14T14:13:18.479Z,6.10
2018-02-14T14:15:46.799Z,6.37
2018-02-14T14:18:14.332Z,5.53
2018-02-14T14:20:42.018Z,5.10
2018-02-14T14:23:09.783Z,4.73
2018-02-14T14:25:37.322Z,4.97
2018-02-14T14:28:04.888Z,5.10
2018-02-14T14:30:32.435Z,4.73
2018-02-14T14:32:59.969Z,4.80
2018-02-14T14:35:28.300Z,5.13
2018-02-14T14:37:56.050Z,5.70
2018-02-14T14:40:23.580Z,5.73
2018-02-14T14:42:51.286Z,4.83
2018-02-14T14:45:19.193Z,5.60
2018-02-14T14:47:46.798Z,5.70
2018-02-14T14:50:14.571Z,4.70
2018-02-14T14:52:42.338Z,5.00
2018-02-14T14:55:09.879Z,5.30
2018-02-14T14:57:37.424Z,5.10
2018-02-14T15:00:04.976Z,5.20
2018-02-14T15:02:32.782Z,5.10
2018-02-14T15:05:00.345Z,5.20
2018-02-14T15:07:27.994Z,4.83
2018-02-14T15:09:55.542Z,5.20
2018-02-14T15:12:23.111Z,6.23
2018-02-14T15:14:50.651Z,7.97
2018-02-14T15:17:18.191Z,4.47
2018-02-14T15:19:46.512Z,5.60
2018-02-14T15:22:14.271Z,4.73
2018-02-14T15:24:41.827Z,4.77
2018-02-14T15:27:09.427Z,4.67
2018-02-14T15:29:37.014Z,5.07
2018-02-14T15:32:04.542Z,3.93
2018-02-14T15:34:32.181Z,4.67
2018-02-14T15:36:59.715Z,4.57
2018-02-14T15:39:27.273Z,4.40
2018-02-14T15:41:54.842Z,4.70
2018-02-14T15:44:22.375Z,5.23
2018-02-14T15:46:50.020Z,4.80
2018-02-14T15:49:17.580Z,3.17
2018-02-14T15:51:45.124Z,4.57
2018-02-14T15:54:12.670Z,4.40
2018-02-14T15:56:40.247Z,4.90
2018-02-14T15:59:08.604Z,5.53
2018-02-14T16:01:36.341Z,6.23
2018-02-14T16:04:03.919Z,6.43
2018-02-14T16:06:32.495Z,6.13
2018-02-14T16:09:00.249Z,6.13
2018-02-14T16:11:28.005Z,6.17
2018-02-14T16:13:55.760Z,6.10
2018-02-14T16:16:23.547Z,6.53
2018-02-14T16:18:51.098Z,5.63
2018-02-14T16:21:18.656Z,7.17
2018-02-14T16:23:46.208Z,6.47
2018-02-14T16:26:13.974Z,5.23
2018-02-14T16:28:41.535Z,5.33
2018-02-14T16:31:09.204Z,6.00
2018-02-14T16:33:36.813Z,5.33
2018-02-14T16:36:04.353Z,5.83
2018-02-14T16:38:31.899Z,7.17
2018-02-14T16:40:59.672Z,5.97
2018-02-14T16:43:27.359Z,5.73
2018-02-14T16:45:54.909Z,6.50
2018-02-14T16:48:23.243Z,6.53
2018-02-14T16:50:50.794Z,6.07
2018-02-14T16:53:18.345Z,5.23
2018-02-14T16:55:45.912Z,5.60
2018-02-14T16:58:13.452Z,5.83
2018-02-14T17:00:41.011Z,6.13
2018-02-14T17:03:08.570Z,6.03
2018-02-14T17:05:36.125Z,6.57
2018-02-14T17:08:03.673Z,6.60
2018-02-14T17:10:31.270Z,4.30
2018-02-14T17:12:59.041Z,5.20
2018-02-14T17:15:26.578Z,4.20
2018-02-14T17:17:54.205Z,5.27
2018-02-14T17:20:22.014Z,6.20
2018-02-14T17:22:49.707Z,4.57
2018-02-14T17:25:17.264Z,5.70
2018-02-14T17:27:44.809Z,3.90
2018-02-14T17:30:12.358Z,5.03
2018-02-14T17:32:39.914Z,8.43
2018-02-14T17:35:07.442Z,5.70
2018-02-14T17:37:34.975Z,4.80
2018-02-14T17:40:02.542Z,5.17
2018-02-14T17:42:30.286Z,6.10
2018-02-14T17:44:58.127Z,6.30
2018-02-14T17:47:25.888Z,4.67
2018-02-14T17:49:53.448Z,5.53
2018-02-14T17:52:20.989Z,6.37
2018-02-14T17:54:48.623Z,3.53
2018-02-14T17:57:16.170Z,5.80
2018-02-14T17:59:43.724Z,5.90
2018-02-14T18:02:11.302Z,5.30
2018-02-14T18:04:38.833Z,6.17
2018-02-14T18:07:06.454Z,4.70
2018-02-14T18:09:34.200Z,6.67
2018-02-14T18:12:01.757Z,4.50
2018-02-14T18:14:29.398Z,4.87
2018-02-14T18:16:56.946Z,2.80
2018-02-14T18:19:25.255Z,6.53
2018-02-14T18:21:52.795Z,4.70
2018-02-14T18:24:20.507Z,4.53
2018-02-14T18:26:48.046Z,3.90
2018-02-14T18:29:15.733Z,5.87
2018-02-14T18:31:43.277Z,7.87
2018-02-14T18:34:10.897Z,7.67
2018-02-14T18:36:38.717Z,4.83
2018-02-14T18:39:06.279Z,5.47
2018-02-14T18:41:33.844Z,7.63
2018-02-14T18:44:01.408Z,6.90
2018-02-14T18:46:28.974Z,8.37
2018-02-14T18:48:56.497Z,7.47
2018-02-14T18:51:24.055Z,7.10
2018-02-14T18:53:51.841Z,6.13
2018-02-14T18:56:19.407Z,7.77
2018-02-14T18:58:46.997Z,7.53
2018-02-14T19:01:14.805Z,9.33
2018-02-14T19:03:42.367Z,7.97
2018-02-14T19:06:09.964Z,6.03
2018-02-14T19:08:37.774Z,9.93
2018-02-14T19:11:05.532Z,8.13
2018-02-14T19:13:33.310Z,8.17
2018-02-14T19:16:00.869Z,7.73
2018-02-14T19:18:28.436Z,8.00
2018-02-14T19:20:55.994Z,7.57
2018-02-14T19:23:23.566Z,7.37
2018-02-14T19:25:51.121Z,8.73
2018-02-14T19:28:18.674Z,8.43
2018-02-14T19:30:46.535Z,8.67
2018-02-14T19:33:14.070Z,5.97
2018-02-14T19:35:41.607Z,8.47
2018-02-14T19:38:10.282Z,7.97
2018-02-14T19:40:37.831Z,7.60
2018-02-14T19:43:05.386Z,7.93
2018-02-14T19:45:32.941Z,8.63
2018-02-14T19:48:00.587Z,4.50
2018-02-14T19:50:28.119Z,7.03
2018-02-14T19:52:55.795Z,8.10
2018-02-14T19:55:23.375Z,8.30
2018-02-14T19:57:50.983Z,8.50
2018-02-14T20:00:18.521Z,7.43
2018-02-14T20:02:46.825Z,6.47
2018-02-14T20:05:14.360Z,6.37
2018-02-14T20:07:42.686Z,7.33
2018-02-14T20:10:11.085Z,5.72
2018-02-14T20:12:38.754Z,7.40
2018-02-14T20:15:06.336Z,7.10
2018-02-14T20:17:34.659Z,4.07
2018-02-14T20:20:02.195Z,6.67
2018-02-14T20:22:29.774Z,5.50
2018-02-14T20:24:58.258Z,5.90
2018-02-14T20:27:26.023Z,6.43
2018-02-14T20:29:53.587Z,6.30
2018-02-14T20:32:21.246Z,7.23
2018-02-14T20:34:48.804Z,6.13
2018-02-14T20:37:16.431Z,7.23
2018-02-14T20:39:43.969Z,4.37
2018-02-14T20:42:12.280Z,7.33
2018-02-14T20:44:39.833Z,6.07
2018-02-14T20:47:07.421Z,5.37
2018-02-14T20:49:34.957Z,5.27
2018-02-14T20:52:02.506Z,6.20
2018-02-14T20:54:30.054Z,6.80
2018-02-14T20:56:57.596Z,6.90
2018-02-14T20:59:25.421Z,6.47
2018-02-14T21:01:52.956Z,6.73
2018-02-14T21:04:20.483Z,3.83
2018-02-14T21:06:48.059Z,6.37
2018-02-14T21:09:15.902Z,3.90
2018-02-14T21:11:44.198Z,5.30
2018-02-14T21:14:11.781Z,4.23
2018-02-14T21:16:39.316Z,6.30
2018-02-14T21:19:06.860Z,5.30
2018-02-14T21:21:34.404Z,5.57
2018-02-14T21:24:02.121Z,6.07
2018-02-14T21:26:29.655Z,3.83
2018-02-14T21:28:57.222Z,5.80
2018-02-14T21:31:24.763Z,4.27
2018-02-14T21:33:52.313Z,3.23
2018-02-14T21:36:20.651Z,4.40
2018-02-14T21:38:48.182Z,6.47
2018-02-14T21:41:15.718Z,5.30
2018-02-14T21:43:43.265Z,3.63
2018-02-14T21:46:10.798Z,5.33
2018-02-14T21:48:38.475Z,6.03
2018-02-14T21:51:06.027Z,5.30
2018-02-14T21:53:33.578Z,6.47
2018-02-14T21:56:01.137Z,4.60
2018-02-14T21:58:28.684Z,5.80
2018-02-14T22:00:56.229Z,6.37
2018-02-14T22:03:23.815Z,4.80
2018-02-14T22:05:51.367Z,4.10
2018-02-14T22:08:18.919Z,4.70
2018-02-14T22:10:46.464Z,4.20
2018-02-14T22:13:14.031Z,3.97
2018-02-14T22:15:41.578Z,5.57
2018-02-14T22:18:09.126Z,4.20
2018-02-14T22:20:36.689Z,6.10
2018-02-14T22:23:04.226Z,4.13
2018-02-14T22:25:31.877Z,5.57
2018-02-14T22:27:59.692Z,3.70
2018-02-14T22:30:27.395Z,4.87
2018-02-14T22:32:54.944Z,5.13
2018-02-14T22:35:22.672Z,6.40
2018-02-14T22:37:50.434Z,5.33
2018-02-14T22:40:17.988Z,4.50
2018-02-14T22:42:45.538Z,5.20
2018-02-14T22:45:13.117Z,4.97
2018-02-14T22:47:40.659Z,4.40
2018-02-14T22:50:08.210Z,4.57
2018-02-14T22:52:36.009Z,4.40
2018-02-14T22:55:03.558Z,5.27
2018-02-14T22:57:31.334Z,6.60
2018-02-14T22:59:58.875Z,3.87
2018-02-14T23:02:26.427Z,3.37
2018-02-14T23:04:53.978Z,6.07
2018-02-14T23:07:21.522Z,5.20
2018-02-14T23:09:49.064Z,6.57
2018-02-14T23:12:16.656Z,6.77
2018-02-14T23:14:44.422Z,5.60
2018-02-14T23:17:12.290Z,6.60
2018-02-14T23:19:39.937Z,5.63
2018-02-14T23:22:07.558Z,5.37
2018-02-14T23:24:35.102Z,4.40
2018-02-14T23:27:02.645Z,4.37
2018-02-14T23:29:35.815Z,5.03
2018-02-14T23:32:03.360Z,4.03
2018-02-14T23:34:31.152Z,4.97
2018-02-14T23:36:58.821Z,3.83
2018-02-14T23:39:26.367Z,4.60
2018-02-14T23:41:54.734Z,4.00
2018-02-14T23:44:22.525Z,5.47
2018-02-14T23:46:50.241Z,4.10
2018-02-14T23:49:18.061Z,3.27
2018-02-14T23:51:45.601Z,4.47
2018-02-14T23:54:13.227Z,3.93
2018-02-14T23:56:40.767Z,4.67
2018-02-14T23:59:09.062Z,4.97
